Terminal Aerodrome Forecast
Issued by NWS

Home | Current Version | Previous Version | Text Only | Print | Product List | Glossary On
Versions: 1 2 3 4 5 6 7 8 9 10 11 12 13
000
FTUS45 KRIW 050534
TAFWRL
TAF
KWRL 050534Z 0506/0606 VRB05KT P6SM FEW120
     FM051500 32010KT P6SM VCSH SCT080 BKN110
     FM052300 32014G20KT P6SM -SHRA SCT020 OVC035=

USA.gov is the U.S. government's official web portal to all federal, state and local government web resources and services.